createdAt,value
2023-03-16T00:00:03.967Z,101.714
2023-03-16T00:01:04.000Z,101.857
2023-03-16T00:02:04.105Z,101.786
2023-03-16T00:03:04.127Z,101.786
2023-03-16T00:04:04.106Z,101.857
2023-03-16T00:05:04.152Z,101.857
2023-03-16T00:06:04.176Z,101.714
2023-03-16T00:07:04.216Z,101.786
2023-03-16T00:08:04.249Z,101.714
2023-03-16T00:09:04.286Z,101.786
2023-03-16T00:10:04.311Z,101.786
2023-03-16T00:11:04.369Z,101.786
2023-03-16T00:12:04.401Z,101.857
2023-03-16T00:13:04.439Z,101.786
2023-03-16T00:14:04.497Z,101.857
2023-03-16T00:15:04.624Z,101.786
2023-03-16T00:16:04.695Z,101.786
2023-03-16T00:17:04.609Z,101.929
2023-03-16T00:18:04.640Z,101.786
2023-03-16T00:19:04.680Z,101.786
2023-03-16T00:20:04.721Z,101.786
2023-03-16T00:21:04.769Z,101.714
2023-03-16T00:22:04.798Z,101.714
2023-03-16T00:23:04.826Z,101.643
2023-03-16T00:24:04.870Z,101.714
2023-03-16T00:25:04.903Z,101.786
2023-03-16T00:26:04.967Z,101.786
2023-03-16T00:27:04.976Z,101.714
2023-03-16T00:28:05.006Z,101.786
2023-03-16T00:29:05.081Z,101.714
2023-03-16T00:30:05.086Z,101.786
2023-03-16T00:31:05.127Z,102
2023-03-16T00:32:05.215Z,101.786
2023-03-16T00:33:05.252Z,101.714
2023-03-16T00:34:05.234Z,101.714
2023-03-16T00:35:08.097Z,101.714
2023-03-16T00:36:05.351Z,101.786
2023-03-16T00:37:05.344Z,101.786
2023-03-16T00:38:05.385Z,101.857
2023-03-16T00:39:05.428Z,101.714
2023-03-16T00:40:05.447Z,101.643
2023-03-16T00:41:05.483Z,101.857
2023-03-16T00:42:05.534Z,101.643
2023-03-16T00:43:05.567Z,101.714
2023-03-16T00:44:05.636Z,101.643
2023-03-16T00:45:05.647Z,101.714
2023-03-16T00:46:05.756Z,101.714
2023-03-16T00:47:05.714Z,101.714
2023-03-16T00:48:05.746Z,101.857
2023-03-16T00:49:05.772Z,101.857
2023-03-16T00:50:05.818Z,101.857
2023-03-16T00:51:05.858Z,101.786
2023-03-16T00:52:05.892Z,101.857
2023-03-16T00:53:05.927Z,101.643
2023-03-16T00:54:05.962Z,101.857
2023-03-16T00:55:06.009Z,101.786
2023-03-16T00:56:06.043Z,101.714
2023-03-16T00:57:06.071Z,101.643
2023-03-16T00:58:06.125Z,101.714
2023-03-16T00:59:06.150Z,101.714
2023-03-16T01:00:06.195Z,101.643
2023-03-16T01:01:06.257Z,101.786
2023-03-16T01:02:06.259Z,101.714
2023-03-16T01:03:06.346Z,101.643
2023-03-16T01:04:06.335Z,101.643
2023-03-16T01:05:06.368Z,101.786
2023-03-16T01:06:06.421Z,101.857
2023-03-16T01:07:06.463Z,101.786
2023-03-16T01:08:06.483Z,101.786
2023-03-16T01:09:06.530Z,101.786
2023-03-16T01:10:06.566Z,101.714
2023-03-16T01:11:06.602Z,101.786
2023-03-16T01:12:06.638Z,101.643
2023-03-16T01:13:06.679Z,101.714
2023-03-16T01:14:06.715Z,101.714
2023-03-16T01:15:06.758Z,101.643
2023-03-16T01:16:06.789Z,101.643
2023-03-16T01:17:06.890Z,101.786
2023-03-16T01:18:06.883Z,101.786
2023-03-16T01:19:06.909Z,101.786
2023-03-16T01:20:06.945Z,101.857
2023-03-16T01:21:06.980Z,101.643
2023-03-16T01:22:07.019Z,101.786
2023-03-16T01:23:07.063Z,101.571
2023-03-16T01:24:07.082Z,101.643
2023-03-16T01:25:07.112Z,101.786
2023-03-16T01:26:07.157Z,101.786
2023-03-16T01:27:07.192Z,101.786
2023-03-16T01:28:07.254Z,101.643
2023-03-16T01:29:07.294Z,101.786
2023-03-16T01:30:07.312Z,101.643
2023-03-16T01:31:07.390Z,101.786
2023-03-16T01:32:07.369Z,101.714
2023-03-16T01:33:07.555Z,101.643
2023-03-16T01:34:07.478Z,101.786
2023-03-16T01:35:07.476Z,101.786
2023-03-16T01:36:07.586Z,101.786
2023-03-16T01:37:07.554Z,101.643
2023-03-16T01:38:07.587Z,101.857
2023-03-16T01:39:07.640Z,101.857
2023-03-16T01:40:07.665Z,101.643
2023-03-16T01:41:07.700Z,101.571
2023-03-16T01:42:07.745Z,101.714
2023-03-16T01:43:07.779Z,101.643
2023-03-16T01:44:07.807Z,101.714
2023-03-16T01:45:07.852Z,101.857
2023-03-16T01:46:07.998Z,101.786
2023-03-16T01:47:07.916Z,101.643
2023-03-16T01:48:07.965Z,101.786
2023-03-16T01:49:07.992Z,101.857
2023-03-16T01:50:08.018Z,101.571
2023-03-16T01:51:08.047Z,101.786
2023-03-16T01:52:08.065Z,101.786
2023-03-16T01:53:08.112Z,101.786
2023-03-16T01:54:08.141Z,101.714
2023-03-16T01:55:08.189Z,101.786
2023-03-16T01:56:08.220Z,101.643
2023-03-16T01:57:08.258Z,101.643
2023-03-16T01:58:08.288Z,101.857
2023-03-16T01:59:08.317Z,101.714
2023-03-16T02:00:08.353Z,101.714
2023-03-16T02:01:08.423Z,101.714
2023-03-16T02:02:08.448Z,102
2023-03-16T02:03:08.464Z,101.786
2023-03-16T02:04:08.556Z,101.643
2023-03-16T02:05:08.560Z,101.857
2023-03-16T02:06:08.578Z,101.786
2023-03-16T02:07:08.613Z,101.786
2023-03-16T02:08:08.643Z,101.714
2023-03-16T02:09:08.682Z,101.786
2023-03-16T02:10:08.754Z,101.786
2023-03-16T02:11:08.763Z,101.857
2023-03-16T02:12:08.794Z,101.786
2023-03-16T02:13:08.832Z,101.857
2023-03-16T02:14:08.864Z,101.714
2023-03-16T02:15:08.921Z,101.857
2023-03-16T02:16:09.048Z,101.714
2023-03-16T02:17:08.978Z,101.714
2023-03-16T02:18:09.065Z,101.929
2023-03-16T02:19:09.050Z,101.714
2023-03-16T02:20:09.081Z,101.857
2023-03-16T02:21:09.118Z,101.571
2023-03-16T02:22:09.158Z,101.714
2023-03-16T02:23:09.215Z,101.714
2023-03-16T02:24:09.263Z,101.857
2023-03-16T02:25:09.265Z,101.714
2023-03-16T02:26:09.310Z,101.643
2023-03-16T02:27:09.345Z,101.857
2023-03-16T02:28:09.372Z,101.786
2023-03-16T02:29:09.422Z,101.714
2023-03-16T02:30:09.455Z,102
2023-03-16T02:31:09.559Z,101.857
2023-03-16T02:32:09.531Z,102
2023-03-16T02:33:09.559Z,102
2023-03-16T02:34:09.597Z,101.714
2023-03-16T02:35:09.647Z,101.786
2023-03-16T02:36:09.716Z,101.929
2023-03-16T02:37:09.700Z,101.857
2023-03-16T02:38:09.747Z,101.857
2023-03-16T02:39:09.775Z,101.786
2023-03-16T02:40:09.825Z,101.786
2023-03-16T02:41:09.879Z,101.786
2023-03-16T02:42:09.891Z,101.857
2023-03-16T02:43:09.929Z,101.714
2023-03-16T02:44:09.979Z,101.786
2023-03-16T02:45:10.011Z,101.643
2023-03-16T02:46:10.114Z,101.786
2023-03-16T02:47:10.099Z,102
2023-03-16T02:48:10.125Z,101.643
2023-03-16T02:49:10.179Z,101.786
2023-03-16T02:50:10.213Z,101.786
2023-03-16T02:51:10.240Z,101.786
2023-03-16T02:52:10.273Z,101.857
2023-03-16T02:53:10.295Z,101.714
2023-03-16T02:54:10.334Z,101.786
2023-03-16T02:55:10.370Z,101.714
2023-03-16T02:56:10.399Z,101.786
2023-03-16T02:57:10.444Z,101.786
2023-03-16T02:58:10.468Z,101.786
2023-03-16T02:59:10.514Z,101.786
2023-03-16T03:00:10.559Z,101.857
2023-03-16T03:01:10.603Z,101.857
2023-03-16T03:02:11.363Z,101.857
2023-03-16T03:03:10.690Z,101.857
2023-03-16T03:04:10.694Z,101.786
2023-03-16T03:05:10.741Z,101.786
2023-03-16T03:06:10.788Z,101.714
2023-03-16T03:07:10.806Z,101.786
2023-03-16T03:08:10.843Z,101.857
2023-03-16T03:09:10.874Z,101.643
2023-03-16T03:10:10.909Z,101.786
2023-03-16T03:11:10.951Z,101.714
2023-03-16T03:12:10.979Z,101.857
2023-03-16T03:13:11.031Z,101.714
2023-03-16T03:14:11.066Z,101.857
2023-03-16T03:15:11.126Z,101.643
2023-03-16T03:16:11.189Z,101.714
2023-03-16T03:17:11.175Z,101.857
2023-03-16T03:18:11.212Z,101.714
2023-03-16T03:19:11.245Z,101.786
2023-03-16T03:20:11.280Z,101.857
2023-03-16T03:21:11.323Z,101.714
2023-03-16T03:22:11.365Z,101.857
2023-03-16T03:23:11.432Z,101.714
2023-03-16T03:24:11.442Z,101.857
2023-03-16T03:25:11.480Z,101.714
2023-03-16T03:26:11.504Z,101.786
2023-03-16T03:27:11.542Z,101.714
2023-03-16T03:28:11.577Z,101.786
2023-03-16T03:29:11.616Z,101.714
2023-03-16T03:30:11.649Z,101.714
2023-03-16T03:31:11.718Z,101.786
2023-03-16T03:32:11.719Z,101.857
2023-03-16T03:33:11.750Z,101.857
2023-03-16T03:34:11.793Z,101.786
2023-03-16T03:35:11.836Z,101.786
2023-03-16T03:36:11.867Z,101.929
2023-03-16T03:37:11.899Z,101.857
2023-03-16T03:38:11.940Z,101.786
2023-03-16T03:39:11.972Z,101.786
2023-03-16T03:40:12.026Z,101.857
2023-03-16T03:41:12.053Z,101.714
2023-03-16T03:42:12.088Z,101.786
2023-03-16T03:43:12.111Z,101.857
2023-03-16T03:44:12.145Z,101.786
2023-03-16T03:45:12.188Z,101.786
2023-03-16T03:46:12.338Z,101.786
2023-03-16T03:47:12.314Z,101.857
2023-03-16T03:48:12.304Z,101.714
2023-03-16T03:49:12.344Z,101.857
2023-03-16T03:50:12.402Z,101.929
2023-03-16T03:51:12.421Z,101.786
2023-03-16T03:52:12.460Z,101.857
2023-03-16T03:53:12.504Z,101.714
2023-03-16T03:54:12.535Z,101.786
2023-03-16T03:55:12.571Z,101.857
2023-03-16T03:56:12.598Z,101.786
2023-03-16T03:57:12.632Z,101.857
2023-03-16T03:58:12.671Z,101.857
2023-03-16T03:59:12.712Z,101.857
2023-03-16T04:00:12.756Z,101.714
2023-03-16T04:01:12.793Z,101.786
2023-03-16T04:02:12.987Z,101.786
2023-03-16T04:03:12.968Z,101.857
2023-03-16T04:04:12.904Z,101.857
2023-03-16T04:05:12.946Z,101.857
2023-03-16T04:06:12.973Z,101.786
2023-03-16T04:07:13.020Z,101.857
2023-03-16T04:08:13.054Z,101.714
2023-03-16T04:09:13.077Z,101.786
2023-03-16T04:10:13.113Z,101.857
2023-03-16T04:11:13.157Z,101.857
2023-03-16T04:12:13.201Z,101.714
2023-03-16T04:13:13.247Z,101.786
2023-03-16T04:14:13.261Z,101.857
2023-03-16T04:15:13.304Z,101.857
2023-03-16T04:16:13.388Z,101.857
2023-03-16T04:17:13.371Z,101.857
2023-03-16T04:18:13.417Z,101.857
2023-03-16T04:19:13.459Z,101.857
2023-03-16T04:20:13.503Z,101.857
2023-03-16T04:21:13.544Z,101.714
2023-03-16T04:22:13.608Z,101.857
2023-03-16T04:23:13.617Z,101.714
2023-03-16T04:24:13.654Z,101.786
2023-03-16T04:25:13.697Z,101.857
2023-03-16T04:26:13.729Z,101.857
2023-03-16T04:27:13.768Z,101.857
2023-03-16T04:28:13.798Z,101.786
2023-03-16T04:29:13.835Z,101.857
2023-03-16T04:30:13.877Z,101.857
2023-03-16T04:31:14.025Z,101.857
2023-03-16T04:32:13.945Z,101.857
2023-03-16T04:33:13.987Z,101.643
2023-03-16T04:34:14.055Z,101.786
2023-03-16T04:35:14.060Z,101.786
2023-03-16T04:36:14.158Z,101.857
2023-03-16T04:37:14.133Z,101.786
2023-03-16T04:38:14.175Z,101.643
2023-03-16T04:39:14.202Z,101.929
2023-03-16T04:40:14.251Z,101.857
2023-03-16T04:41:14.268Z,101.786
2023-03-16T04:42:14.310Z,101.786
2023-03-16T04:43:14.349Z,101.786
2023-03-16T04:44:14.375Z,101.643
2023-03-16T04:45:14.426Z,101.786
2023-03-16T04:46:14.509Z,101.786
2023-03-16T04:47:14.488Z,101.786
2023-03-16T04:48:14.529Z,101.786
2023-03-16T04:49:14.562Z,102.071
2023-03-16T04:50:14.599Z,101.929
2023-03-16T04:51:14.628Z,101.786
2023-03-16T04:52:14.667Z,101.786
2023-03-16T04:53:14.704Z,101.786
2023-03-16T04:54:14.731Z,101.786
2023-03-16T04:55:14.774Z,101.786
2023-03-16T04:56:14.803Z,101.929
2023-03-16T04:57:14.843Z,101.786
2023-03-16T04:58:14.880Z,101.714
2023-03-16T04:59:14.916Z,101.929
2023-03-16T05:00:14.954Z,101.643
2023-03-16T05:01:15.108Z,101.786
2023-03-16T05:02:15.030Z,101.786
2023-03-16T05:03:15.068Z,101.714
2023-03-16T05:04:19.253Z,101.929
2023-03-16T05:05:15.232Z,101.786
2023-03-16T05:06:15.171Z,101.714
2023-03-16T05:07:15.197Z,101.786
2023-03-16T05:08:15.242Z,101.786
2023-03-16T05:09:15.281Z,101.786
2023-03-16T05:10:15.321Z,101.929
2023-03-16T05:11:15.356Z,101.929
2023-03-16T05:12:15.384Z,101.714
2023-03-16T05:13:15.426Z,101.857
2023-03-16T05:14:15.444Z,101.929
2023-03-16T05:15:15.483Z,101.786
2023-03-16T05:16:15.591Z,101.786
2023-03-16T05:17:15.572Z,101.643
2023-03-16T05:18:15.601Z,101.786
2023-03-16T05:19:16.245Z,101.786
2023-03-16T05:20:16.499Z,101.786
2023-03-16T05:21:15.698Z,101.786
2023-03-16T05:22:15.725Z,101.786
2023-03-16T05:23:15.766Z,101.929
2023-03-16T05:24:15.795Z,101.929
2023-03-16T05:25:15.825Z,101.929
2023-03-16T05:26:15.866Z,102.071
2023-03-16T05:27:15.912Z,101.786
2023-03-16T05:28:15.941Z,101.929
2023-03-16T05:29:15.973Z,101.929
2023-03-16T05:30:16.012Z,102
2023-03-16T05:31:16.138Z,101.714
2023-03-16T05:32:16.082Z,101.786
2023-03-16T05:33:16.120Z,101.857
2023-03-16T05:34:16.167Z,102
2023-03-16T05:35:16.205Z,101.929
2023-03-16T05:36:16.256Z,101.857
2023-03-16T05:37:16.261Z,101.857
2023-03-16T05:38:16.302Z,101.929
2023-03-16T05:39:16.355Z,101.786
2023-03-16T05:40:16.381Z,101.857
2023-03-16T05:41:16.425Z,101.786
2023-03-16T05:42:16.457Z,101.714
2023-03-16T05:43:16.497Z,101.929
2023-03-16T05:44:16.526Z,101.929
2023-03-16T05:45:16.550Z,101.857
2023-03-16T05:46:18.382Z,102
2023-03-16T05:47:16.622Z,101.929
2023-03-16T05:48:16.663Z,101.857
2023-03-16T05:49:16.694Z,101.857
2023-03-16T05:50:16.738Z,101.929
2023-03-16T05:51:16.775Z,101.929
2023-03-16T05:52:16.811Z,101.714
2023-03-16T05:53:16.867Z,101.929
2023-03-16T05:54:16.877Z,101.929
2023-03-16T05:55:16.940Z,101.929
2023-03-16T05:56:16.943Z,101.929
2023-03-16T05:57:17.004Z,101.786
2023-03-16T05:58:17.027Z,101.929
2023-03-16T05:59:17.064Z,101.857
2023-03-16T06:00:17.117Z,101.857
2023-03-16T06:01:17.133Z,101.857
2023-03-16T06:02:17.179Z,101.786
2023-03-16T06:03:17.333Z,101.929
2023-03-16T06:04:17.335Z,101.857
2023-03-16T06:05:17.298Z,101.786
2023-03-16T06:06:17.327Z,101.857
2023-03-16T06:07:17.367Z,101.857
2023-03-16T06:08:17.390Z,101.929
2023-03-16T06:09:17.432Z,101.786
2023-03-16T06:10:17.480Z,101.929
2023-03-16T06:11:17.514Z,102
2023-03-16T06:12:17.535Z,101.857
2023-03-16T06:13:17.573Z,101.929
2023-03-16T06:14:17.649Z,101.714
2023-03-16T06:15:17.686Z,101.786
2023-03-16T06:16:17.769Z,101.857
2023-03-16T06:17:17.712Z,101.929
2023-03-16T06:18:17.761Z,101.857
2023-03-16T06:19:17.882Z,101.857
2023-03-16T06:20:17.826Z,101.929
2023-03-16T06:21:17.862Z,102
2023-03-16T06:22:17.942Z,101.929
2023-03-16T06:23:17.944Z,101.857
2023-03-16T06:24:17.984Z,101.786
2023-03-16T06:25:18.015Z,101.714
2023-03-16T06:26:18.054Z,101.929
2023-03-16T06:27:18.089Z,101.786
2023-03-16T06:28:18.113Z,101.786
2023-03-16T06:29:18.157Z,101.786
2023-03-16T06:30:18.204Z,101.786
2023-03-16T06:31:18.268Z,101.786
2023-03-16T06:32:18.258Z,101.786
2023-03-16T06:33:18.309Z,101.786
2023-03-16T06:34:18.346Z,101.786
2023-03-16T06:35:18.373Z,101.786
2023-03-16T06:36:18.404Z,101.929
2023-03-16T06:37:18.443Z,101.714
2023-03-16T06:38:18.480Z,101.929
2023-03-16T06:39:18.522Z,101.786
2023-03-16T06:40:18.545Z,101.857
2023-03-16T06:41:18.575Z,101.857
2023-03-16T06:42:18.608Z,101.929
2023-03-16T06:43:18.647Z,101.857
2023-03-16T06:44:18.690Z,101.857
2023-03-16T06:45:18.720Z,101.929
2023-03-16T06:46:18.822Z,101.857
2023-03-16T06:47:18.803Z,101.929
2023-03-16T06:48:18.823Z,101.929
2023-03-16T06:49:18.865Z,101.857
2023-03-16T06:50:18.901Z,102.071
2023-03-16T06:51:18.933Z,102.071
2023-03-16T06:52:18.965Z,101.857
2023-03-16T06:53:19.008Z,101.929
2023-03-16T06:54:19.045Z,101.857
2023-03-16T06:55:19.081Z,101.929
2023-03-16T06:56:19.113Z,101.857
2023-03-16T06:57:19.143Z,101.929
2023-03-16T06:58:19.185Z,101.929
2023-03-16T06:59:19.225Z,101.929
2023-03-16T07:00:19.261Z,101.929
2023-03-16T07:01:19.307Z,101.929
2023-03-16T07:02:19.322Z,101.929
2023-03-16T07:03:19.378Z,102
2023-03-16T07:04:19.477Z,102.071
2023-03-16T07:05:19.438Z,102
2023-03-16T07:06:19.465Z,101.929
2023-03-16T07:07:19.503Z,101.857
2023-03-16T07:08:19.531Z,101.929
2023-03-16T07:09:19.558Z,101.857
2023-03-16T07:10:19.588Z,101.929
2023-03-16T07:11:19.625Z,102.214
2023-03-16T07:12:19.661Z,101.857
2023-03-16T07:13:19.709Z,102.071
2023-03-16T07:14:19.744Z,101.929
2023-03-16T07:15:19.789Z,101.929
2023-03-16T07:16:19.940Z,101.857
2023-03-16T07:17:19.851Z,101.929
2023-03-16T07:18:19.878Z,102
2023-03-16T07:19:19.925Z,101.929
2023-03-16T07:20:21.131Z,101.929
2023-03-16T07:21:20.004Z,101.929
2023-03-16T07:22:20.027Z,102.143
2023-03-16T07:23:20.053Z,101.929
2023-03-16T07:24:20.092Z,102
2023-03-16T07:25:20.128Z,102.143
2023-03-16T07:26:20.160Z,102
2023-03-16T07:27:20.202Z,102.143
2023-03-16T07:28:20.237Z,102.143
2023-03-16T07:29:20.280Z,102
2023-03-16T07:30:20.319Z,101.929
2023-03-16T07:31:20.517Z,101.929
2023-03-16T07:32:20.382Z,101.857
2023-03-16T07:33:20.429Z,102.071
2023-03-16T07:34:20.451Z,101.786
2023-03-16T07:35:20.502Z,101.929
2023-03-16T07:36:20.644Z,101.929
2023-03-16T07:37:25.374Z,102.071
2023-03-16T07:38:20.598Z,101.857
2023-03-16T07:39:20.624Z,102.143
2023-03-16T07:40:20.673Z,102
2023-03-16T07:41:20.696Z,101.929
2023-03-16T07:42:20.732Z,102
2023-03-16T07:43:20.774Z,101.929
2023-03-16T07:44:20.803Z,102.071
2023-03-16T07:45:20.828Z,102.071
2023-03-16T07:46:20.922Z,101.929
2023-03-16T07:47:20.905Z,102.143
2023-03-16T07:48:20.956Z,102.143
2023-03-16T07:49:20.988Z,101.929
2023-03-16T07:50:21.017Z,101.929
2023-03-16T07:51:21.062Z,102
2023-03-16T07:52:21.096Z,102.071
2023-03-16T07:53:21.131Z,101.929
2023-03-16T07:54:21.168Z,101.857
2023-03-16T07:55:21.203Z,101.857
2023-03-16T07:56:21.244Z,101.929
2023-03-16T07:57:21.276Z,101.857
2023-03-16T07:58:21.306Z,101.929
2023-03-16T07:59:21.357Z,101.929
2023-03-16T08:00:21.386Z,102
2023-03-16T08:01:21.420Z,101.857
2023-03-16T08:02:21.570Z,101.929
2023-03-16T08:03:21.517Z,101.929
2023-03-16T08:04:21.514Z,101.929
2023-03-16T08:05:21.566Z,102
2023-03-16T08:06:21.604Z,101.929
2023-03-16T08:07:21.631Z,102
2023-03-16T08:08:21.677Z,102.214
2023-03-16T08:09:21.813Z,102.071
2023-03-16T08:10:21.740Z,102
2023-03-16T08:11:21.776Z,102.071
2023-03-16T08:12:21.806Z,102
2023-03-16T08:13:21.846Z,101.929
2023-03-16T08:14:21.881Z,101.929
2023-03-16T08:15:21.904Z,101.857
2023-03-16T08:16:22.271Z,101.857
2023-03-16T08:17:21.980Z,102.071
2023-03-16T08:18:22.026Z,102.071
2023-03-16T08:19:22.044Z,101.929
2023-03-16T08:20:22.079Z,102
2023-03-16T08:21:22.113Z,101.857
2023-03-16T08:22:22.178Z,102
2023-03-16T08:23:22.192Z,102
2023-03-16T08:24:22.245Z,102
2023-03-16T08:25:22.255Z,102
2023-03-16T08:26:22.297Z,102
2023-03-16T08:27:22.342Z,102
2023-03-16T08:28:22.366Z,101.929
2023-03-16T08:29:22.399Z,102.071
2023-03-16T08:30:22.438Z,101.929
2023-03-16T08:31:22.539Z,101.929
2023-03-16T08:32:22.510Z,102
2023-03-16T08:33:23.414Z,101.857
2023-03-16T08:34:22.572Z,102.071
2023-03-16T08:35:22.606Z,102
2023-03-16T08:36:22.639Z,101.929
2023-03-16T08:37:22.664Z,102
2023-03-16T08:38:22.695Z,102
2023-03-16T08:39:22.736Z,101.929
2023-03-16T08:40:22.770Z,102
2023-03-16T08:41:22.803Z,101.929
2023-03-16T08:42:22.848Z,102.071
2023-03-16T08:43:22.878Z,102
2023-03-16T08:44:22.909Z,102
2023-03-16T08:45:22.957Z,102
2023-03-16T08:46:22.999Z,102
2023-03-16T08:47:23.029Z,102
2023-03-16T08:48:23.054Z,101.857
2023-03-16T08:49:23.084Z,101.929
2023-03-16T08:50:23.131Z,101.929
2023-03-16T08:51:23.160Z,101.929
2023-03-16T08:52:23.202Z,102
2023-03-16T08:53:23.249Z,102.071
2023-03-16T08:54:23.274Z,101.857
2023-03-16T08:55:23.316Z,101.786
2023-03-16T08:56:23.347Z,101.786
2023-03-16T08:57:23.408Z,102.071
2023-03-16T08:58:23.420Z,102.071
2023-03-16T08:59:29.738Z,101.929
2023-03-16T09:00:23.484Z,101.929
2023-03-16T09:01:23.572Z,101.929
2023-03-16T09:02:23.550Z,101.929
2023-03-16T09:03:23.589Z,102.071
2023-03-16T09:04:23.781Z,102
2023-03-16T09:05:23.660Z,102
2023-03-16T09:06:23.692Z,101.857
2023-03-16T09:07:23.757Z,101.929
2023-03-16T09:08:23.773Z,102
2023-03-16T09:09:23.812Z,102.071
2023-03-16T09:10:23.843Z,102.071
2023-03-16T09:11:23.880Z,102
2023-03-16T09:12:23.908Z,101.857
2023-03-16T09:13:23.953Z,101.857
2023-03-16T09:14:24.012Z,102.071
2023-03-16T09:15:24.040Z,102
2023-03-16T09:16:24.123Z,102
2023-03-16T09:17:24.115Z,101.929
2023-03-16T09:18:24.148Z,102
2023-03-16T09:19:24.186Z,102.071
2023-03-16T09:20:26.882Z,102.071
2023-03-16T09:21:24.255Z,102.071
2023-03-16T09:22:24.341Z,101.786
2023-03-16T09:23:24.336Z,102.143
2023-03-16T09:24:24.375Z,102.214
2023-03-16T09:25:24.413Z,102
2023-03-16T09:26:24.495Z,102.071
2023-03-16T09:27:24.498Z,102
2023-03-16T09:28:24.515Z,102
2023-03-16T09:29:24.624Z,102.071
2023-03-16T09:30:24.755Z,102.071
2023-03-16T09:31:24.709Z,102.143
2023-03-16T09:32:24.716Z,102
2023-03-16T09:33:24.700Z,102.071
2023-03-16T09:35:24.775Z,102
2023-03-16T09:36:24.799Z,102.071
2023-03-16T09:37:24.841Z,102
2023-03-16T09:38:24.869Z,102.071
2023-03-16T09:39:24.910Z,102.071
2023-03-16T09:40:24.951Z,102.143
2023-03-16T09:41:24.991Z,101.929
2023-03-16T09:42:25.017Z,102
2023-03-16T09:43:25.069Z,102.143
2023-03-16T09:44:25.085Z,102
2023-03-16T09:45:25.124Z,102
2023-03-16T09:46:25.178Z,102.071
2023-03-16T09:47:25.211Z,102
2023-03-16T09:48:25.286Z,101.929
2023-03-16T09:49:25.286Z,102.071
2023-03-16T09:50:26.666Z,102.071
2023-03-16T09:51:25.474Z,102
2023-03-16T09:52:25.405Z,102
2023-03-16T09:53:25.443Z,102.143
2023-03-16T09:54:25.475Z,102
2023-03-16T09:55:25.501Z,102
2023-03-16T09:56:25.537Z,102.071
2023-03-16T09:57:25.584Z,102.143
2023-03-16T09:58:25.621Z,102
2023-03-16T09:59:25.670Z,102.071
2023-03-16T10:00:25.709Z,102.071
2023-03-16T10:01:25.828Z,102.071
2023-03-16T10:02:25.776Z,102.071
2023-03-16T10:03:25.808Z,102.071
2023-03-16T10:04:25.841Z,102.071
2023-03-16T10:05:25.877Z,102.071
2023-03-16T10:06:25.902Z,102.071
2023-03-16T10:07:25.939Z,102.143
2023-03-16T10:08:25.981Z,102.071
2023-03-16T10:09:26.005Z,102.071
2023-03-16T10:10:26.069Z,101.929
2023-03-16T10:11:26.120Z,102.071
2023-03-16T10:12:26.127Z,102.143
2023-03-16T10:13:26.160Z,102
2023-03-16T10:14:26.199Z,102.143
2023-03-16T10:15:26.229Z,102.143
2023-03-16T10:16:26.312Z,102.143
2023-03-16T10:17:26.296Z,102
2023-03-16T10:18:26.337Z,102
2023-03-16T10:19:26.406Z,102.143
2023-03-16T10:20:26.755Z,102
2023-03-16T10:21:26.445Z,102.143
2023-03-16T10:22:26.591Z,102.214
2023-03-16T10:23:26.543Z,102.143
2023-03-16T10:24:26.532Z,102
2023-03-16T10:25:26.576Z,102.214
2023-03-16T10:26:26.607Z,102.143
2023-03-16T10:27:26.646Z,102
2023-03-16T10:28:26.673Z,101.929
2023-03-16T10:29:26.718Z,102
2023-03-16T10:30:27.213Z,102
2023-03-16T10:31:26.800Z,102.071
2023-03-16T10:32:27.651Z,102.071
2023-03-16T10:33:26.897Z,102
2023-03-16T10:34:26.929Z,102.071
2023-03-16T10:35:27.467Z,101.929
2023-03-16T10:36:26.982Z,101.929
2023-03-16T10:37:27.000Z,101.929
2023-03-16T10:38:27.039Z,102.214
2023-03-16T10:39:28.608Z,101.929
2023-03-16T10:40:27.588Z,102.143
2023-03-16T10:41:27.149Z,102.143
2023-03-16T10:42:27.181Z,102.143
2023-03-16T10:43:27.214Z,102.071
2023-03-16T10:44:27.356Z,102.071
2023-03-16T10:45:27.847Z,102.143
2023-03-16T10:46:27.565Z,102
2023-03-16T10:47:27.361Z,102
2023-03-16T10:48:27.398Z,101.929
2023-03-16T10:49:27.468Z,102.071
2023-03-16T10:50:28.048Z,102
2023-03-16T10:51:27.491Z,101.929
2023-03-16T10:52:27.526Z,101.929
2023-03-16T10:53:27.563Z,101.929
2023-03-16T10:54:27.721Z,102.071
2023-03-16T10:55:27.847Z,101.929
2023-03-16T10:56:27.682Z,101.929
2023-03-16T10:57:27.711Z,101.929
2023-03-16T10:58:29.680Z,102.143
2023-03-16T10:59:27.816Z,102.143
2023-03-16T11:00:27.811Z,102
2023-03-16T11:01:27.874Z,102
2023-03-16T11:02:27.895Z,102.143
2023-03-16T11:03:27.933Z,101.929
2023-03-16T11:04:28.056Z,102
2023-03-16T11:05:28.259Z,102.071
2023-03-16T11:06:28.035Z,101.929
2023-03-16T11:07:28.073Z,101.786
2023-03-16T11:08:28.106Z,102.071
2023-03-16T11:09:28.141Z,102.071
2023-03-16T11:10:28.174Z,101.929
2023-03-16T11:11:28.221Z,102.071
2023-03-16T11:12:28.242Z,102.071
2023-03-16T11:13:28.292Z,102
2023-03-16T11:14:28.355Z,102.071
2023-03-16T11:15:28.340Z,102
2023-03-16T11:16:28.441Z,101.929
2023-03-16T11:17:28.412Z,102.143
2023-03-16T11:18:28.454Z,102.071
2023-03-16T11:19:28.492Z,102
2023-03-16T11:20:28.630Z,102
2023-03-16T11:21:28.574Z,102.071
2023-03-16T11:22:28.600Z,102.071
2023-03-16T11:23:28.649Z,102
2023-03-16T11:24:28.684Z,102
2023-03-16T11:25:29.115Z,101.857
2023-03-16T11:26:28.757Z,102
2023-03-16T11:27:28.788Z,102
2023-03-16T11:28:28.820Z,102.071
2023-03-16T11:29:28.866Z,102
2023-03-16T11:30:28.905Z,102
2023-03-16T11:31:28.987Z,101.929
2023-03-16T11:32:29.001Z,102.071
2023-03-16T11:33:29.004Z,102
2023-03-16T11:34:29.054Z,102.071
2023-03-16T11:35:29.589Z,102.071
2023-03-16T11:36:29.178Z,102
2023-03-16T11:37:29.151Z,102
2023-03-16T11:38:29.194Z,101.857
2023-03-16T11:39:29.221Z,101.929
2023-03-16T11:40:29.261Z,102
2023-03-16T11:41:29.304Z,102
2023-03-16T11:42:29.338Z,101.929
2023-03-16T11:43:29.381Z,102.143
2023-03-16T11:44:29.412Z,101.786
2023-03-16T11:45:29.686Z,101.929
2023-03-16T11:46:29.607Z,101.857
2023-03-16T11:47:29.526Z,101.929
2023-03-16T11:48:29.562Z,101.929
2023-03-16T11:49:29.598Z,101.929
2023-03-16T11:50:29.643Z,101.929
2023-03-16T11:51:29.679Z,101.929
2023-03-16T11:52:29.700Z,101.929
2023-03-16T11:53:29.734Z,102
2023-03-16T11:54:29.769Z,101.929
2023-03-16T11:55:30.160Z,101.786
2023-03-16T11:56:29.845Z,101.786
2023-03-16T11:57:29.885Z,101.929
2023-03-16T11:58:29.918Z,101.929
2023-03-16T11:59:29.952Z,101.929
2023-03-16T12:00:29.984Z,101.786
2023-03-16T12:01:30.839Z,101.857
2023-03-16T12:02:30.229Z,101.929
2023-03-16T12:03:30.175Z,102
2023-03-16T12:04:30.219Z,102.071
2023-03-16T12:05:30.617Z,101.929
2023-03-16T12:06:30.201Z,101.857
2023-03-16T12:07:30.254Z,101.857
2023-03-16T12:08:30.267Z,101.929
2023-03-16T12:09:30.302Z,101.857
2023-03-16T12:10:30.344Z,102
2023-03-16T12:11:30.375Z,102
2023-03-16T12:12:30.411Z,102
2023-03-16T12:13:30.457Z,101.929
2023-03-16T12:14:30.500Z,101.857
2023-03-16T12:15:31.032Z,102
2023-03-16T12:16:39.034Z,102
2023-03-16T12:17:30.588Z,101.929
2023-03-16T12:18:30.616Z,102
2023-03-16T12:19:30.665Z,102.071